THY142 LTFM-OERK
Flight info
| Callsign | THY142 |
|---|---|
| Flight time | N/A |
| Altitude | 35000 |
| Route | VICEN UT57 VEVUD UT341 BAG UL605 YUCEL UA17 BALAX UL605 RATSI UL605 GAZ UB36 TUSYR B544 ALE Q538 KTN R785 RASLI P559 TRF R23 NEVOL N318 TAMRO T503 RARSU |
| Aircraft | B738/M-SADE1E2E3FGHIJ1RWYZ/LB1 |
Departure
| Time | N/A |
|---|---|
| Airport | İstanbul Airport (LTFM) |
Arrival
| Time | 2026-05-01 07:58 |
|---|---|
| Airport | King Khalid International Airport (OERK) |
| Time | Latitude | Longitude | Altitude | Speed | Heading |
|---|---|---|---|---|---|
| 2026-05-01 07:23 | 27.16698 | 44.38431 | 36991 ft | 489 kts | 147° |
| 2026-05-01 07:24 | 27.09361 | 44.46296 | 36987 ft | 489 kts | 147° |
| 2026-05-01 07:24 | 27.04408 | 44.51602 | 36984 ft | 489 kts | 147° |
| 2026-05-01 07:25 | 26.99517 | 44.56835 | 36994 ft | 488 kts | 147° |
| 2026-05-01 07:25 | 26.94592 | 44.62088 | 36992 ft | 488 kts | 147° |
| 2026-05-01 07:26 | 26.89686 | 44.67310 | 36992 ft | 488 kts | 147° |
| 2026-05-01 07:26 | 26.84743 | 44.72569 | 36996 ft | 489 kts | 147° |
| 2026-05-01 07:27 | 26.79812 | 44.77811 | 36996 ft | 489 kts | 147° |
| 2026-05-01 07:27 | 26.74872 | 44.83054 | 36997 ft | 489 kts | 147° |
| 2026-05-01 07:28 | 26.69921 | 44.88290 | 36992 ft | 489 kts | 147° |
| 2026-05-01 07:28 | 26.67440 | 44.90906 | 36812 ft | 493 kts | 147° |
| 2026-05-01 07:28 | 26.64955 | 44.93526 | 36425 ft | 497 kts | 147° |
| 2026-05-01 07:28 | 26.62448 | 44.96176 | 36063 ft | 496 kts | 147° |
| 2026-05-01 07:29 | 26.59947 | 44.98818 | 35701 ft | 493 kts | 147° |
| 2026-05-01 07:29 | 26.57456 | 45.01449 | 35348 ft | 494 kts | 147° |
| 2026-05-01 07:29 | 26.54952 | 45.04091 | 35010 ft | 496 kts | 147° |
| 2026-05-01 07:29 | 26.52469 | 45.06707 | 34670 ft | 497 kts | 147° |
| 2026-05-01 07:30 | 26.49921 | 45.09387 | 34333 ft | 499 kts | 147° |
| 2026-05-01 07:30 | 26.47378 | 45.12057 | 33995 ft | 501 kts | 147° |
| 2026-05-01 07:30 | 26.44855 | 45.14711 | 33611 ft | 502 kts | 146° |
| 2026-05-01 07:30 | 26.42321 | 45.17375 | 33222 ft | 503 kts | 146° |
| 2026-05-01 07:31 | 26.39814 | 45.20007 | 32847 ft | 504 kts | 145° |
| 2026-05-01 07:31 | 26.32159 | 45.28038 | 31738 ft | 505 kts | 144° |
| 2026-05-01 07:32 | 26.27029 | 45.33416 | 31006 ft | 506 kts | 143° |
| 2026-05-01 07:32 | 26.24467 | 45.36112 | 30647 ft | 506 kts | 142° |
| 2026-05-01 07:33 | 26.19349 | 45.41492 | 29898 ft | 505 kts | 141° |
| 2026-05-01 07:33 | 26.16821 | 45.44140 | 29499 ft | 504 kts | 141° |
| 2026-05-01 07:33 | 26.11727 | 45.49477 | 28689 ft | 502 kts | 141° |
| 2026-05-01 07:34 | 26.09159 | 45.52167 | 28305 ft | 502 kts | 141° |
| 2026-05-01 07:34 | 26.04232 | 45.57323 | 27560 ft | 496 kts | 141° |
| 2026-05-01 07:34 | 26.01765 | 45.59898 | 27177 ft | 486 kts | 141° |
| 2026-05-01 07:35 | 25.99323 | 45.62447 | 26822 ft | 476 kts | 141° |
| 2026-05-01 07:35 | 25.96929 | 45.64947 | 26544 ft | 465 kts | 141° |
| 2026-05-01 07:35 | 25.94626 | 45.67349 | 26271 ft | 455 kts | 141° |
| 2026-05-01 07:35 | 25.92339 | 45.69734 | 26005 ft | 445 kts | 141° |
| 2026-05-01 07:36 | 25.90105 | 45.72066 | 25727 ft | 437 kts | 140° |
| 2026-05-01 07:36 | 25.88234 | 45.74724 | 25429 ft | 438 kts | 120° |
| 2026-05-01 07:36 | 25.87178 | 45.77879 | 25188 ft | 435 kts | 104° |
| 2026-05-01 07:36 | 25.86945 | 45.81204 | 24923 ft | 431 kts | 87° |
| 2026-05-01 07:37 | 25.87530 | 45.87731 | 24181 ft | 423 kts | 85° |
| 2026-05-01 07:37 | 25.87812 | 45.90974 | 23619 ft | 418 kts | 86° |
| 2026-05-01 07:37 | 25.88059 | 45.94175 | 22869 ft | 416 kts | 86° |
| 2026-05-01 07:38 | 25.88302 | 45.97377 | 22155 ft | 413 kts | 86° |
| 2026-05-01 07:38 | 25.88545 | 46.00547 | 21492 ft | 408 kts | 86° |
| 2026-05-01 07:38 | 25.89021 | 46.06735 | 20274 ft | 400 kts | 86° |
| 2026-05-01 07:39 | 25.89255 | 46.09783 | 19666 ft | 397 kts | 86° |
| 2026-05-01 07:39 | 25.89411 | 46.11821 | 19261 ft | 394 kts | 86° |
| 2026-05-01 07:39 | 25.89870 | 46.17829 | 18062 ft | 388 kts | 86° |
| 2026-05-01 07:40 | 25.90171 | 46.21797 | 17191 ft | 384 kts | 86° |
| 2026-05-01 07:40 | 25.90320 | 46.23756 | 16758 ft | 382 kts | 86° |
| 2026-05-01 07:40 | 25.90541 | 46.26689 | 16126 ft | 380 kts | 86° |
| 2026-05-01 07:40 | 25.90760 | 46.29583 | 15761 ft | 376 kts | 86° |
| 2026-05-01 07:41 | 25.90977 | 46.32460 | 15694 ft | 364 kts | 86° |
| 2026-05-01 07:41 | 25.91185 | 46.35227 | 15589 ft | 354 kts | 87° |
| 2026-05-01 07:41 | 25.90101 | 46.40263 | 15060 ft | 335 kts | 130° |
| 2026-05-01 07:42 | 25.88537 | 46.42145 | 15026 ft | 329 kts | 149° |
| 2026-05-01 07:42 | 25.86626 | 46.43512 | 14910 ft | 320 kts | 155° |
| 2026-05-01 07:42 | 25.84707 | 46.44732 | 14688 ft | 316 kts | 157° |
| 2026-05-01 07:42 | 25.82810 | 46.45908 | 14351 ft | 316 kts | 157° |
| 2026-05-01 07:43 | 25.80882 | 46.47106 | 14025 ft | 315 kts | 157° |
| 2026-05-01 07:43 | 25.78977 | 46.48300 | 13730 ft | 313 kts | 157° |
| 2026-05-01 07:43 | 25.75212 | 46.50684 | 13090 ft | 309 kts | 156° |
| 2026-05-01 07:44 | 25.71498 | 46.53050 | 12462 ft | 306 kts | 156° |
| 2026-05-01 07:44 | 25.67877 | 46.54040 | 11800 ft | 284 kts | 194° |
| 2026-05-01 07:45 | 25.65906 | 46.53770 | 11505 ft | 284 kts | 189° |
| 2026-05-01 07:45 | 25.63926 | 46.53645 | 11184 ft | 284 kts | 187° |
| 2026-05-01 07:45 | 25.61982 | 46.53547 | 10903 ft | 282 kts | 187° |
| 2026-05-01 07:45 | 25.60019 | 46.53441 | 10623 ft | 280 kts | 187° |
| 2026-05-01 07:46 | 25.58076 | 46.53326 | 10340 ft | 279 kts | 187° |
| 2026-05-01 07:46 | 25.56134 | 46.53203 | 10059 ft | 278 kts | 187° |
| 2026-05-01 07:46 | 25.52318 | 46.52945 | 9466 ft | 275 kts | 187° |
| 2026-05-01 07:47 | 25.50405 | 46.52812 | 9153 ft | 273 kts | 187° |
| 2026-05-01 07:47 | 25.48506 | 46.52677 | 8793 ft | 274 kts | 187° |
| 2026-05-01 07:47 | 25.46607 | 46.52540 | 8493 ft | 274 kts | 186° |
| 2026-05-01 07:47 | 25.44703 | 46.52404 | 8249 ft | 271 kts | 186° |
| 2026-05-01 07:48 | 25.40978 | 46.52138 | 7707 ft | 268 kts | 185° |
| 2026-05-01 07:48 | 25.39169 | 46.52007 | 7438 ft | 268 kts | 185° |
| 2026-05-01 07:48 | 25.37305 | 46.51873 | 7174 ft | 266 kts | 185° |
| 2026-05-01 07:49 | 25.35786 | 46.51764 | 6919 ft | 265 kts | 185° |
| 2026-05-01 07:49 | 25.32100 | 46.51498 | 6321 ft | 263 kts | 184° |
| 2026-05-01 07:49 | 25.30320 | 46.51371 | 6225 ft | 253 kts | 184° |
| 2026-05-01 07:50 | 25.28577 | 46.51244 | 6128 ft | 244 kts | 183° |
| 2026-05-01 07:50 | 25.25452 | 46.51953 | 5949 ft | 226 kts | 162° |
| 2026-05-01 07:50 | 25.23998 | 46.52477 | 5872 ft | 214 kts | 163° |
| 2026-05-01 07:51 | 25.22605 | 46.52976 | 5666 ft | 206 kts | 162° |
| 2026-05-01 07:51 | 25.21262 | 46.53450 | 5247 ft | 209 kts | 161° |
| 2026-05-01 07:51 | 25.20019 | 46.54196 | 5006 ft | 201 kts | 128° |
| 2026-05-01 07:52 | 25.18277 | 46.56571 | 4990 ft | 203 kts | 129° |
| 2026-05-01 07:52 | 25.17355 | 46.57753 | 4964 ft | 200 kts | 136° |
| 2026-05-01 07:52 | 25.16183 | 46.58551 | 4951 ft | 197 kts | 148° |
| 2026-05-01 07:53 | 25.13808 | 46.59979 | 4519 ft | 189 kts | 147° |
| 2026-05-01 07:53 | 25.12669 | 46.60683 | 4238 ft | 187 kts | 146° |
| 2026-05-01 07:53 | 25.11556 | 46.61384 | 4034 ft | 184 kts | 145° |
| 2026-05-01 07:53 | 25.10443 | 46.62091 | 4002 ft | 184 kts | 145° |
| 2026-05-01 07:54 | 25.08264 | 46.63473 | 3987 ft | 180 kts | 146° |
| 2026-05-01 07:55 | 25.04979 | 46.65575 | 3694 ft | 176 kts | 147° |
| 2026-05-01 07:55 | 25.02951 | 46.66854 | 3260 ft | 165 kts | 147° |
| 2026-05-01 07:56 | 25.00104 | 46.68661 | 2609 ft | 153 kts | 145° |
| 2026-05-01 07:56 | 24.98264 | 46.69836 | 2226 ft | 155 kts | 147° |
| 2026-05-01 07:57 | 24.97326 | 46.70427 | 2073 ft | 154 kts | 145° |
| 2026-05-01 07:57 | 24.95880 | 46.71343 | 2071 ft | 78 kts | 150° |
| 2026-05-01 07:58 | 24.95197 | 46.71775 | 2066 ft | 41 kts | 150° |
| 2026-05-01 07:58 | 24.94898 | 46.71845 | 2073 ft | 12 kts | 239° |
| 2026-05-01 07:59 | 24.94830 | 46.71711 | 2074 ft | 9 kts | 239° |
| 2026-05-01 07:59 | 24.94775 | 46.71599 | 2079 ft | 8 kts | 240° |
| 2026-05-01 08:00 | 24.94665 | 46.71387 | 2075 ft | 8 kts | 242° |
| 2026-05-01 08:01 | 24.94553 | 46.71269 | 2077 ft | 8 kts | 161° |
| 2026-05-01 08:01 | 24.94506 | 46.71297 | 2075 ft | 8 kts | 150° |
| 2026-05-01 08:01 | 24.94463 | 46.71325 | 2078 ft | 7 kts | 149° |
| 2026-05-01 08:02 | 24.94378 | 46.71380 | 2075 ft | 7 kts | 149° |
| 2026-05-01 08:02 | 24.94336 | 46.71403 | 2075 ft | 7 kts | 174° |
| 2026-05-01 08:03 | 24.94319 | 46.71391 | 2081 ft | 0 kts | 224° |
| 2026-05-01 08:03 | 24.94315 | 46.71390 | 2081 ft | 1 kts | 205° |
| 2026-05-01 08:03 | 24.94284 | 46.71385 | 2080 ft | 3 kts | 200° |
| 2026-05-01 08:04 | 24.94272 | 46.71374 | 2081 ft | 0 kts | 218° |
| 2026-05-01 08:04 | 24.94278 | 46.71364 | 2079 ft | 1 kts | 327° |
| 2026-05-01 08:05 | 24.94287 | 46.71335 | 2077 ft | 2 kts | 251° |
| 2026-05-01 08:05 | 24.94283 | 46.71327 | 2077 ft | 0 kts | 242° |
| 2026-05-01 08:05 | 24.94282 | 46.71326 | 2077 ft | 0 kts | 242° |